Terminal Aerodrome Forecast
Issued by NWS Cleveland, OH

Home | Current Version | Previous Version | Graphics & Text | Print | Product List | Glossary On
Versions: 1 2 3 4 5 6 7 8 9 10 11 12 13 14 15 16 17 18 19 20 21 22 23 24 25 26 27
492
FTUS41 KCLE 230317 AAB
TAFCLE
TAF AMD
KCLE 230317Z 2303/2406 20011KT P6SM OVC035
     FM230600 20008KT 6SM BR OVC025
     FM231000 20010KT 5SM BR OVC015
     FM231600 22012KT P6SM OVC015
     FM232100 28008KT P6SM OVC025
     FM240000 01006KT P6SM OVC015=

USA.gov is the U.S. government's official web portal to all federal, state and local government web resources and services.